• Join FlightAware (Why Join?)
  • Login
  • US Flag 
06:56PM EDT


 

Airport Tracker/Info


-or-


 

Live Flight TrackerFlight Track Log ✈ AAL1774 ✈ 26-Aug-2013 ✈ KMIA - KLAX

Flight Track Log - Related Links

Times and Time Zones

All times are in EDT time to prevent confusion due to time zone crossing. See the AAL1774 flight status page for this flight to view local times or setup timezone preferences in your user account.

Time Position Orientation Groundspeed Altitude Reporting Facility
EDT Latitude Longitude Course Direction KTS MPH feet Rate Location/Type
01:28PM 25.8003 -80.2722 318° Northwest 188 216 1,200  Level Miami Center
01:29PM 25.8350 -80.2225 52° Northeast 212 244 3,800 2,580 Climbing Miami Center
01:30PM 25.8858 -80.1869 32° Northeast 243 280 6,500 2,520 Climbing Miami Center
01:31PM 26.0320 -80.5705 310° West  Level FlightAware Approximate
01:31PM 25.9458 -80.2094 341° North 267 307 8,800  Level Miami Center
01:32PM 26.1167 -80.6666 318° Northwest  Level FlightAware Approximate
01:32PM 26.0119 -80.2389 338° Northwest 279 321 8,900  Level Miami Center
01:33PM 26.2069 -80.7569 318° Northwest  Level FlightAware Approximate
01:33PM 26.0783 -80.2617 343° North 260 299 10,800  Level Miami Center
01:34PM 26.2971 -80.8471 318° Northwest  Level FlightAware Approximate
01:34PM 26.1508 -80.2914 340° North 266 306 12,800  Level Miami Center
01:35PM 26.1992 -80.3692 305° West 284 327 14,400 1,200 Climbing Miami Center
01:36PM 26.2211 -80.4881 282° West 343 395 15,200 1,680 Climbing Miami Center
01:37PM 26.2306 -80.6181 275° West 375 432 17,800 2,220 Climbing Miami Center
01:38PM 26.2964 -80.7358 302° West 405 466 19,700 2,040 Climbing Miami Center
01:39PM 26.3908 -80.7900 333° Northwest 406 467 21,900 1,860 Climbing Miami Center
01:40PM 26.4992 -80.8794 324° Northwest 433 498 23,500 1,500 Climbing Miami Center
01:41PM 26.6036 -80.9572 326° Northwest 448 516 25,000 1,620 Climbing Miami Center
01:42PM 26.6994 -81.0306 326° Northwest 463 533 26,800 1,500 Climbing Miami Center
01:43PM 26.8058 -81.1086 327° Northwest 458 527 28,000 1,440 Climbing Miami Center
01:44PM 26.9264 -81.2017 325° Northwest 469 540 29,700 1,500 Climbing Miami Center
01:45PM 27.0119 -81.2653 326° Northwest 469 540 31,100 1,500 Climbing Miami Center
01:46PM 27.1036 -81.4111 305° West 457 526 32,800 1,500 Climbing Miami Center
01:47PM 27.1283 -81.5497 281° West 471 542 34,100 1,260 Climbing Miami Center
01:48PM 27.1633 -81.6958 285° West 492 566 35,400 1,200 Climbing Miami Center
01:49PM 27.1994 -81.8606 284° West 498 573 36,600 960 Climbing Miami Center
01:50PM 27.2294 -82.0136 282° West 493 567 37,400 660 Climbing Miami Center
01:51PM 27.2617 -82.1622 284° West 493 567 38,000 300 Climbing Miami Center
01:52PM 27.2903 -82.2944 284° West 493 567 38,000  Level Miami Center
01:53PM 27.3219 -82.4431 284° West 493 567 38,000  Level Miami Center
01:54PM 27.3553 -82.6083 283° West 493 567 38,000  Level Miami Center
01:55PM 27.3867 -82.7594 283° West 493 567 38,000  Level Miami Center
01:56PM 27.4203 -82.9036 285° West 487 560 38,000  Level Miami Center
01:57PM 27.4497 -83.0503 283° West 487 560 38,000  Level Miami Center
01:58PM 27.4786 -83.1992 282° West 487 560 38,000  Level Miami Center
01:59PM 27.5097 -83.3458 283° West 487 560 38,000  Level Miami Center
02:00PM 27.5383 -83.4925 282° West 487 560 38,000  Level Miami Center
02:01PM 27.5669 -83.6394 282° West 487 560 38,000  Level Miami Center
02:02PM 27.5975 -83.7864 283° West 487 560 38,000  Level Miami Center
02:03PM 27.6239 -83.9331 282° West 487 560 38,000  Level Miami Center
02:05PM 27.6781 -84.1978 283° West 512 589 38,000  Level Jacksonville Center
02:06PM 27.7078 -84.3456 283° West 501 577 38,000  Level Jacksonville Center
02:07PM 27.7372 -84.4914 283° West 483 556 38,000  Level Jacksonville Center
02:08PM 27.7667 -84.6372 283° West 483 556 38,000  Level Jacksonville Center
02:09PM 27.7919 -84.7714 282° West 478 550 38,000  Level Jacksonville Center
02:10PM 27.8211 -84.9103 283° West 472 543 38,000  Level Jacksonville Center
02:11PM 27.8458 -85.0589 281° West 472 543 38,000  Level Jacksonville Center
02:12PM 27.8767 -85.2025 284° West 472 543 38,000  Level Jacksonville Center
02:13PM 27.9139 -85.3419 287° West 472 543 38,000  Level Jacksonville Center
02:14PM 27.9528 -85.4839 287° West 472 543 38,000  Level Jacksonville Center
02:15PM 27.9958 -85.6167 290° West 463 533 38,000  Level Jacksonville Center
02:16PM 28.0347 -85.7469 289° West 463 533 38,000  Level Jacksonville Center
02:17PM 28.0775 -85.8844 289° West 463 533 38,000  Level Jacksonville Center
02:18PM 28.1200 -86.0342 288° West 458 527 38,000  Level Jacksonville Center
02:19PM 28.1606 -86.1625 290° West 452 520 38,000  Level Jacksonville Center
02:20PM 28.2008 -86.2978 289° West 445 512 38,000  Level Jacksonville Center
02:21PM 28.2431 -86.4336 289° West 451 519 38,000  Level Jacksonville Center
02:22PM 28.2811 -86.5669 288° West 454 522 38,000  Level Jacksonville Center
02:23PM 28.3250 -86.7075 290° West 464 534 38,000  Level Jacksonville Center
02:24PM 28.3625 -86.8433 287° West 464 534 38,000  Level Jacksonville Center
02:25PM 28.4058 -86.9914 288° West 471 542 38,000  Level Jacksonville Center
02:26PM 28.4414 -87.1228 287° West 465 535 38,000  Level Jacksonville Center
02:27PM 28.4725 -87.2261 289° West 464 534 38,000  Level Houston Center
02:28PM 28.5122 -87.3661 288° West 465 535 38,000  Level Houston Center
02:29PM 28.5519 -87.5053 288° West 463 533 38,000  Level Houston Center
02:30PM 28.5911 -87.6436 288° West 461 531 38,000  Level Houston Center
02:31PM 28.6306 -87.7822 288° West 460 529 38,000  Level Houston Center
02:32PM 28.6708 -87.9206 288° West 462 532 38,000  Level Houston Center
02:33PM 28.7158 -88.0858 287° West 457 526 38,000  Level Houston Center
02:34PM 28.7506 -88.2044 288° West 455 524 38,000  Level Houston Center
02:35PM 28.7961 -88.3692 288° West 457 526 38,000  Level Houston Center
02:36PM 28.8331 -88.5058 287° West 452 520 38,000  Level Houston Center
02:37PM 28.8697 -88.6422 287° West 451 519 38,000  Level Houston Center
02:38PM 28.9081 -88.7775 288° West 450 518 38,000  Level Houston Center
02:39PM 28.9453 -88.9144 287° West 452 520 38,000  Level Houston Center
02:40PM 28.9714 -89.0539 282° West 451 519 38,000  Level Houston Center
02:41PM 28.9886 -89.2278 277° West 459 528 38,000  Level Houston Center
02:42PM 29.0061 -89.3708 278° West 456 525 38,000  Level Houston Center
02:43PM 29.0219 -89.5181 277° West 463 533 38,000  Level Houston Center
02:45PM 29.0397 -89.6622 278° West 463 533 38,000  Level Houston Center
02:46PM 29.0586 -89.8050 279° West 457 526 38,000  Level Houston Center
02:47PM 29.0914 -89.9428 285° West 453 521 38,000  Level Houston Center
02:48PM 29.1586 -90.0636 303° West 449 517 38,000  Level Houston Center
02:49PM 29.2444 -90.1997 306° West 445 512 38,000  Level Houston Center
02:50PM 29.3161 -90.3164 305° West 444 511 38,000  Level Houston Center
02:51PM 29.3878 -90.4322 305° West 445 512 38,000  Level Houston Center
02:52PM 29.4583 -90.5469 305° West 440 506 38,000  Level Houston Center
02:53PM 29.5275 -90.6611 305° West 436 502 38,000  Level Houston Center
02:54PM 29.5969 -90.7756 305° West 435 501 38,000  Level Houston Center
02:55PM 29.6667 -90.8900 305° West 438 504 38,000  Level Houston Center
02:56PM 29.7497 -91.0272 305° West 434 499 38,000  Level Houston Center
02:57PM 29.8200 -91.1411 305° West 435 501 38,000  Level Houston Center
02:58PM 29.8881 -91.2550 305° West 431 496 38,000  Level Houston Center
02:59PM 29.9558 -91.3661 305° West 425 489 38,000  Level Houston Center
03:00PM 30.0225 -91.4783 304° West 424 488 38,000  Level Houston Center
03:01PM 30.0881 -91.5914 304° West 424 488 38,000  Level Houston Center
03:02PM 30.1569 -91.7025 306° West 425 489 38,000  Level Houston Center
03:03PM 30.2350 -91.8353 304° West 428 493 38,000  Level Houston Center
03:04PM 30.3025 -91.9481 305° West 427 491 38,000  Level Houston Center
03:05PM 30.3694 -92.0622 304° West 427 491 38,000  Level Houston Center
03:06PM 30.4358 -92.1761 304° West 427 491 38,000  Level Houston Center
03:07PM 30.5167 -92.3114 305° West 425 489 38,000  Level Houston Center
03:08PM 30.5831 -92.4236 305° West 423 487 38,000  Level Houston Center
03:09PM 30.6503 -92.5389 304° West 428 493 38,000  Level Houston Center
03:10PM 30.7169 -92.6519 304° West 425 489 38,000  Level Houston Center
03:11PM 30.7850 -92.7686 304° West 431 496 38,000  Level Houston Center
03:12PM 30.8531 -92.8844 304° West 433 498 38,000  Level Houston Center
03:13PM 30.9253 -93.0081 304° West 435 501 38,000  Level Houston Center
03:14PM 30.9933 -93.1256 304° West 440 506 38,000  Level Houston Center
03:16PM 31.0600 -93.2447 303° West 443 510 38,000  Level Houston Center
03:17PM 31.1408 -93.3886 303° West 445 512 38,000  Level Houston Center
03:18PM 31.2094 -93.5089 304° West 447 514 38,000  Level Houston Center
03:19PM 31.2869 -93.6433 304° West 448 516 38,000  Level Houston Center
03:20PM 31.3539 -93.7636 303° West 444 511 38,000  Level Houston Center
03:21PM 31.4239 -93.8867 304° West 451 519 38,000  Level Houston Center
03:22PM 31.4931 -94.0075 304° West 449 517 38,000  Level Houston Center
03:23PM 31.5614 -94.1289 303° West 448 516 38,000  Level Houston Center
03:24PM 31.6286 -94.2506 303° West 448 516 38,000  Level Houston Center
03:25PM 31.7097 -94.3958 303° West 446 513 38,000  Level Houston Center
03:26PM 31.7561 -94.5278 292° West 442 509 38,000  Level Houston Center
03:27PM 31.7950 -94.6644 289° West 444 511 38,000  Level Houston Center
03:28PM 31.8344 -94.8008 289° West 444 511 38,000  Level Houston Center
03:29PM 31.8733 -94.9397 288° West 448 516 38,000  Level Houston Center
03:30PM 31.9119 -95.0758 289° West 443 510 38,000  Level Houston Center
03:31PM 31.9656 -95.2708 288° West 443 510 38,000  Level Fort Worth Center
03:32PM 32.0056 -95.4119 289° West 443 510 38,000  Level Fort Worth Center
03:33PM 32.0431 -95.5531 287° West 443 510 38,000  Level Fort Worth Center
03:34PM 32.0850 -95.7044 288° West 448 516 38,000  Level Fort Worth Center
03:35PM 32.1244 -95.8483 288° West 448 516 38,000  Level Fort Worth Center
03:36PM 32.1636 -95.9925 288° West 458 527 38,000  Level Fort Worth Center
03:37PM 32.2028 -96.1342 288° West 458 527 38,000  Level Fort Worth Center
03:38PM 32.2439 -96.2836 288° West 458 527 38,000  Level Fort Worth Center
03:39PM 32.2847 -96.4256 289° West 458 527 38,000  Level Fort Worth Center
03:40PM 32.3233 -96.5725 287° West 458 527 38,000  Level Fort Worth Center
03:41PM 32.3597 -96.7197 286° West 463 533 38,000  Level Fort Worth Center
03:42PM 32.4000 -96.8697 288° West 463 533 38,000  Level Fort Worth Center
03:43PM 32.4383 -97.0172 287° West 468 539 38,000  Level Fort Worth Center
03:44PM 32.4761 -97.1672 287° West 473 544 38,000  Level Fort Worth Center
03:45PM 32.5139 -97.3147 287° West 480 552 38,000  Level Fort Worth Center
03:46PM 32.5556 -97.4675 288° West 480 552 38,000  Level Fort Worth Center
03:47PM 32.5953 -97.6156 288° West 480 552 38,000  Level Fort Worth Center
03:48PM 32.6344 -97.7661 287° West 480 552 38,000  Level Fort Worth Center
03:49PM 32.6694 -97.8994 287° West 480 552 38,000  Level Fort Worth Center
03:50PM 32.7086 -98.0506 287° West 480 552 38,000  Level Fort Worth Center
03:51PM 32.7472 -98.2039 287° West 480 552 38,000  Level Fort Worth Center
03:52PM 32.7861 -98.3525 287° West 480 552 38,000  Level Fort Worth Center
03:53PM 32.8264 -98.5111 287° West 475 547 38,000  Level Fort Worth Center
03:54PM 32.8625 -98.6650 286° West 469 540 38,000  Level Fort Worth Center
03:55PM 32.9006 -98.8164 287° West 480 552 38,000  Level Fort Worth Center
03:56PM 32.9386 -98.9678 287° West 480 552 38,000  Level Fort Worth Center
03:57PM 32.9742 -99.1197 286° West 480 552 38,000  Level Fort Worth Center
03:58PM 33.0117 -99.2739 286° West 480 552 38,000  Level Fort Worth Center
03:59PM 33.0469 -99.4133 287° West 480 552 38,000  Level Fort Worth Center
04:00PM 33.0842 -99.5681 286° West 480 552 38,000  Level Fort Worth Center
04:01PM 33.1208 -99.7250 286° West 485 558 38,000  Level Fort Worth Center
04:02PM 33.1597 -99.8825 286° West 490 564 38,000  Level Fort Worth Center
04:03PM 33.1942 -100.0372 285° West 490 564 38,000  Level Fort Worth Center
04:04PM 33.2303 -100.1972 285° West 498 573 38,000  Level Fort Worth Center
04:05PM 33.2644 -100.3500 285° West 493 567 38,000  Level Fort Worth Center
04:06PM 33.3003 -100.5078 285° West 493 567 38,000  Level Fort Worth Center
04:07PM 33.3381 -100.6608 286° West 493 567 38,000  Level Fort Worth Center
04:08PM 33.3717 -100.8161 285° West 493 567 38,000  Level Fort Worth Center
04:09PM 33.4089 -100.9719 286° West 488 562 38,000  Level Fort Worth Center
04:10PM 33.4458 -101.1425 285° West 479 551 38,000  Level Fort Worth Center
04:11PM 33.4772 -101.2783 286° West 479 551 38,000  Level Fort Worth Center
04:12PM 33.5156 -101.4469 285° West 479 551 38,000  Level Fort Worth Center
04:13PM 33.5444 -101.5828 284° West 479 551 38,000  Level Fort Worth Center
04:14PM 33.5850 -101.7469 287° West 494 568 38,000  Level Fort Worth Center
04:15PM 33.6133 -101.8903 283° West 488 562 38,000  Level Fort Worth Center
04:16PM 33.6503 -102.0769 283° West 504 580 38,000  Level Fort Worth Center
04:17PM 33.6806 -102.2133 285° West 489 563 38,000  Level Fort Worth Center
04:18PM 33.7158 -102.3825 284° West 479 551 38,000  Level Fort Worth Center
04:21PM 33.8067 -102.8014 285° West 486 559 38,000  Level Albuquerque Center
04:22PM 33.8397 -102.9567 284° West 487 560 38,000  Level Albuquerque Center
04:23PM 33.8794 -103.1439 284° West 485 558 38,000  Level Albuquerque Center
04:24PM 33.9114 -103.3039 284° West 489 563 38,000  Level Albuquerque Center
04:25PM 33.9433 -103.4653 283° West 493 567 38,000  Level Albuquerque Center
04:26PM 33.9744 -103.6294 283° West 496 571 38,000  Level Albuquerque Center
04:27PM 34.0075 -103.7900 284° West 492 566 38,000  Level Albuquerque Center
04:28PM 34.0392 -103.9522 283° West 492 566 38,000  Level Albuquerque Center
04:29PM 34.0700 -104.1117 283° West 487 560 38,000  Level Albuquerque Center
04:30PM 34.1019 -104.2742 283° West 490 564 38,000  Level Albuquerque Center
04:31PM 34.1386 -104.4661 283° West 497 572 38,000  Level Albuquerque Center
04:32PM 34.1697 -104.6292 283° West 494 568 38,000  Level Albuquerque Center
04:33PM 34.1997 -104.7903 283° West 488 562 38,000  Level Albuquerque Center
04:34PM 34.2308 -104.9525 283° West 490 564 38,000  Level Albuquerque Center
04:35PM 34.2614 -105.1164 283° West 492 566 38,000  Level Albuquerque Center
04:37PM 34.2917 -105.2789 283° West 491 565 38,000  Level Albuquerque Center
04:38PM 34.3211 -105.4428 282° West 492 566 38,000  Level Albuquerque Center
04:39PM 34.3519 -105.6067 283° West 494 568 38,000  Level Albuquerque Center
04:40PM 34.3650 -105.7736 275° West 497 572 38,000  Level Albuquerque Center
04:41PM 34.3692 -105.9422 272° West 497 572 38,000  Level Albuquerque Center
04:42PM 34.3706 -106.1094 271° West 494 568 38,000  Level Albuquerque Center
04:43PM 34.3725 -106.2806 271° West 498 573 38,000  Level Albuquerque Center
04:44PM 34.3753 -106.4539 271° West 500 575 38,000  Level Albuquerque Center
04:45PM 34.3769 -106.6478 271° West 499 574 38,000  Level Albuquerque Center
04:46PM 34.3792 -106.8136 271° West 495 570 38,000  Level Albuquerque Center
04:47PM 34.3800 -106.9775 270° West 490 564 38,000  Level Albuquerque Center
04:48PM 34.3814 -107.1564 271° West 493 567 38,000 180 Level Albuquerque Center
04:49PM 34.3789 -107.3156 269° West 491 565 38,400 720 Climbing Albuquerque Center
04:50PM 34.3803 -107.4819 271° West 491 565 39,500 780 Climbing Albuquerque Center
04:51PM 34.3806 -107.6433 270° West 484 557 40,000 240 Climbing Albuquerque Center
04:52PM 34.3806 -107.8047 270° West 480 552 40,000  Level Albuquerque Center
04:53PM 34.3814 -107.9686 270° West 482 555 40,000  Level Albuquerque Center
04:54PM 34.3814 -108.1317 270° West 484 557 40,000  Level Albuquerque Center
04:55PM 34.3817 -108.2967 270° West 488 562 40,000  Level Albuquerque Center
04:56PM 34.3811 -108.4883 270° West 487 560 40,000  Level Albuquerque Center
04:57PM 34.3803 -108.6428 270° West 482 555 40,000  Level Albuquerque Center
04:58PM 34.3794 -108.8258 270° West 484 557 40,000  Level Albuquerque Center
04:59PM 34.3792 -108.9828 270° West 485 558 40,000  Level Albuquerque Center
05:00PM 34.3783 -109.1661 270° West 487 560 40,000  Level Albuquerque Center
05:01PM 34.3767 -109.3236 269° West 488 562 40,000  Level Albuquerque Center
05:02PM 34.3739 -109.5056 269° West 486 559 40,000  Level Albuquerque Center
05:03PM 34.3725 -109.6581 269° West 479 551 40,000  Level Albuquerque Center
05:04PM 34.3697 -109.8097 269° West 474 545 40,000  Level Albuquerque Center
05:05PM 34.3667 -109.9878 269° West 474 545 40,000  Level Albuquerque Center
05:06PM 34.3633 -110.1411 269° West 474 545 40,000  Level Albuquerque Center
05:07PM 34.3603 -110.3183 269° West 473 544 40,000  Level Albuquerque Center
05:08PM 34.3578 -110.4542 269° West 474 545 40,000  Level Albuquerque Center
05:09PM 34.3542 -110.6439 269° West 474 545 40,000  Level Albuquerque Center
05:10PM 34.3472 -110.7961 267° West 462 532 40,000  Level Albuquerque Center
05:11PM 34.3433 -110.9497 268° West 459 528 40,000  Level Albuquerque Center
05:13PM 34.3381 -111.1006 268° West 454 522 40,000  Level Albuquerque Center
05:14PM 34.3331 -111.2492 268° West 447 514 40,000 -300 Level Albuquerque Center
05:15PM 34.3278 -111.3956 268° West 441 507 39,400 -900 Descending Albuquerque Center
05:16PM 34.3222 -111.5767 268° West 450 518 38,200 -720 Descending Albuquerque Center
05:17PM 34.3172 -111.7267 268° West 452 520 38,000 -120 Descending Albuquerque Center
05:18PM 34.3122 -111.8736 268° West 447 514 38,000  Level Albuquerque Center
05:19PM 34.3058 -112.0200 267° West 444 511 38,000  Level Albuquerque Center
05:20PM 34.3006 -112.1683 268° West 445 512 38,000  Level Albuquerque Center
05:21PM 34.2933 -112.3469 267° West 446 513 38,000  Level Albuquerque Center
05:22PM 34.2869 -112.4967 267° West 447 514 38,000  Level Albuquerque Center
05:23PM 34.2803 -112.6444 267° West 445 512 38,000  Level Albuquerque Center
05:24PM 34.2744 -112.7922 267° West 443 510 38,000  Level Albuquerque Center
05:25PM 34.2661 -112.9389 266° West 442 509 38,000  Level Albuquerque Center
05:26PM 34.2594 -113.0875 267° West 443 510 38,000  Level Albuquerque Center
05:27PM 34.2503 -113.2636 266° West 441 507 38,000  Level Albuquerque Center
05:28PM 34.2433 -113.4108 267° West 441 507 38,000  Level Albuquerque Center
05:29PM 34.2347 -113.5578 266° West 440 506 38,000  Level Albuquerque Center
05:30PM 34.2294 -113.7069 268° West 439 505 38,000  Level Albuquerque Center
05:31PM 34.2225 -113.8531 267° West 438 504 38,000  Level Albuquerque Center
05:32PM 34.2175 -113.9981 268° West 437 503 38,000  Level Albuquerque Center
05:33PM 34.2103 -114.1456 267° West 436 502 38,000  Level Albuquerque Center
05:34PM 34.2019 -114.3239 267° West 440 506 38,000  Level Albuquerque Center
05:35PM 34.1978 -114.4261 267° West 441 507 38,000  Level Los Angeles Center
05:36PM 34.1894 -114.5711 266° West 437 503 38,000  Level Los Angeles Center
05:37PM 34.1814 -114.7133 266° West 428 493 38,000 -240 Level Los Angeles Center
05:38PM 34.1711 -114.8878 266° West 435 501 37,600 -720 Descending Los Angeles Center
05:39PM 34.1619 -115.0353 266° West 441 507 36,600 -780 Descending Los Angeles Center
05:40PM 34.1533 -115.1847 266° West 446 513 36,000 -300 Descending Los Angeles Center
05:41PM 34.1433 -115.3308 265° West 440 506 36,000  Level Los Angeles Center
05:42PM 34.1350 -115.4772 266° West 438 504 36,000  Level Los Angeles Center
05:43PM 34.1247 -115.6203 265° West 433 498 36,000 -300 Level Los Angeles Center
05:44PM 34.1064 -115.8228 264° West 434 499 35,400 -1,020 Descending Los Angeles Center
05:45PM 34.0831 -115.9681 259° West 440 506 33,800 -1,920 Descending Los Angeles Center
05:46PM 34.0608 -116.1156 260° West 447 514 31,500 -2,340 Descending Los Angeles Center
05:48PM 34.0381 -116.2661 260° West 453 521 29,000 -2,340 Descending Los Angeles Center
05:49PM 34.0153 -116.4203 260° West 460 529 26,700 -2,280 Descending Los Angeles Center
05:50PM 33.9958 -116.6053 263° West 466 536 24,400 -2,280 Descending Los Angeles Center
05:51PM 33.9839 -116.7531 264° West 455 524 22,100 -2,460 Descending Los Angeles Center
05:52PM 33.9719 -116.8894 264° West 430 495 19,400 -2,340 Descending Los Angeles Center
05:53PM 33.9622 -117.0156 265° West 396 456 17,400 -1,320 Descending Los Angeles Center
05:54PM 33.9514 -117.1425 264° West 384 442 16,800 -780 Descending Los Angeles Center
05:55PM 33.9400 -117.2706 264° West 382 440 15,800 -1,380 Descending Los Angeles Center
05:56PM 33.9500 -117.4167 275° West 384 442 14,000 -1,800 Descending Southern California TRACON
05:57PM 33.9833 -117.5333 289° West 327 376 12,200 -1,740 Descending Southern California TRACON
05:58PM 34.0167 -117.6333 292° West 367 422 10,600 -1,140 Descending Southern California TRACON
05:59PM 34.0000 -117.7167 256° West 285 328 10,000 -960 Descending Southern California TRACON
06:00PM 34.0000 -117.8167 270° West 297 342 8,700 -1,320 Descending Southern California TRACON
06:01PM 33.9833 -117.9167 259° West 293 337 7,400 -1,380 Descending Southern California TRACON
06:02PM 33.9667 -118.0167 259° West 275 316 6,100 -1,320 Descending Southern California TRACON
06:03PM 33.9667 -118.1000 270° West 221 254 4,800 -1,140 Descending Southern California TRACON
06:04PM 33.9667 -118.1500 270° West 199 229 3,900 -1,020 Descending Southern California TRACON
06:05PM 33.9500 -118.2167 253° West 182 209 2,900 -960 Descending Southern California TRACON
06:06PM 33.9500 -118.2667 270° West 168 193 2,000 -900 Descending Southern California TRACON
06:07PM 33.9500 -118.3333 270° West 135 155 1,100 -780 Descending Southern California TRACON
06:08PM 33.9333 -118.3667 239° Southwest 127 146 500 -720 Descending Southern California TRACON
06:10PM 33.9333 -118.4000 270° West  Level FlightAware Approximate
06:17PM 33.9425 -118.4081 270° West  Level Estimated